Impacts METAR Board
IDs:

KMSP - Minneapolis-St Paul, MN, US

Updated at: 1100 UTC 30 Oct 2020
Potential Impact None Slight Moderate High
Time 29/23Z 30/00Z 30/01Z 30/02Z 30/03Z 30/04Z 30/05Z 30/06Z 30/07Z 30/08Z 30/09Z 30/10Z 30/11Z
Temp33 33 32 32 32 32 32 31 31 32 32 31 31
Dewpt19 19 20 21 20 20 21 22 24 23 24 25 24
Altim30.12 30.13 30.14 30.14 30.15 30.16 30.17 30.18 30.20 30.20 30.20 30.20 30.22
VIS10 10 10 10 10 10 10 10 10 10 10 10 10
CIG-- -- -- 100 140 130 140 90 75 75 70 75 70
CoverSCTSCTSCTBKNBKNBKNBKNOVCOVCOVCOVCOVCOVC
FltCatVFRVFRVFRVFRVFRVFRVFRVFRVFRVFRVFRVFRVFR
WX--------------------------
WDir34020100140015000000140130
WSpd3 3 3 3 0 3 0 0 0 0 0 3 3
WGst-- -- -- -- -- -- -- -- -- -- -- -- --
Raw hourly METARs
KMSP 292253Z 34003KT 10SM SCT037 01/M07 A3012 RMK AO2 SLP211 T00061072
KMSP 292353Z 02003KT 10SM FEW037 SCT100 01/M07 A3013 RMK AO2 SLP213 T00061072 10033 20000 53001
KMSP 300053Z 10003KT 10SM FEW170 SCT200 00/M07 A3014 RMK AO2 SLP216 T00001067
KMSP 300153Z 14003KT 10SM BKN100 00/M06 A3014 RMK AO2 SLP216 T00001061
KMSP 300253Z 00000KT 10SM BKN140 00/M07 A3015 RMK AO2 SLP221 T00001067 53007
KMSP 300353Z 15003KT 10SM BKN130 00/M07 A3016 RMK AO2 SLP222 T00001067
KMSP 300453Z 00000KT 10SM FEW110 BKN140 00/M06 A3017 RMK AO2 SLP228 T00001061
KMSP 300553Z 00000KT 10SM BKN090 OVC110 M01/M06 A3018 RMK AO2 SLP230 T10061056 10006 21006 400331006 53010
KMSP 300653Z 00000KT 10SM OVC075 M01/M04 A3020 RMK AO2 SLP236 T10061044
KMSP 300753Z 00000KT 10SM OVC075 00/M05 A3020 RMK AO2 SLP235 T00001050
KMSP 300853Z 00000KT 10SM OVC070 00/M04 A3020 RMK AO2 SLP237 T00001044 51006
KMSP 300953Z 14003KT 10SM BKN075 OVC110 M01/M04 A3020 RMK AO2 SLP236 T10061039
KMSP 301053Z 13003KT 10SM BKN070 BKN085 OVC110 M01/M04 A3022 RMK AO2 SLP242 T10061044



Page loaded:  11:24 UTC  |   04:24 AM Pacific  |   05:24 AM Mountain  |   06:24 AM Central  |   07:24 AM Eastern

 

ADVISORIES

FORECASTS

FORECASTS

OBSERVATIONS

USER TOOLS

ABOUT US